Time;durP1;ratioP1;P1;durP2;ratioP2;P2;SDS_P1;SDS_P2;PMS_P1;PMS_P2;Temp;Humidity;BMP_temperature;BMP_pressure;BME280_temperature;BME280_humidity;BME280_pressure;Samples;Min_cycle;Max_cycle;Signal;HPM_P1;HPM_P2
2023/05/28 00:02:25;;;;;;;7.30;6.70;;;18.50;15.00;;;;;;5071776;28;20503;-45
2023/05/28 00:04:51;;;;;;;8.07;7.27;;;18.50;15.00;;;;;;5071593;28;20512;-50
2023/05/28 00:07:16;;;;;;;7.57;6.87;;;18.50;15.10;;;;;;5073688;28;20178;-50
2023/05/28 00:09:42;;;;;;;13.23;7.00;;;18.50;15.20;;;;;;5074284;28;20178;-49
2023/05/28 00:12:08;;;;;;;6.37;5.87;;;18.50;15.20;;;;;;5072995;28;20206;-44
2023/05/28 00:14:34;;;;;;;8.87;6.80;;;18.50;15.40;;;;;;5072724;28;20177;-46
2023/05/28 00:17:00;;;;;;;7.93;7.30;;;18.50;15.30;;;;;;5071189;28;20470;-44
2023/05/28 00:19:26;;;;;;;8.67;7.90;;;18.50;15.30;;;;;;5071860;28;20413;-45
2023/05/28 00:21:51;;;;;;;7.93;7.33;;;18.50;15.50;;;;;;5071319;28;20500;-45
2023/05/28 00:24:17;;;;;;;7.90;7.30;;;18.50;16.00;;;;;;5073591;28;20205;-45
2023/05/28 00:26:43;;;;;;;9.20;8.50;;;18.50;16.90;;;;;;5073338;28;20633;-47
2023/05/28 00:29:08;;;;;;;8.60;7.80;;;18.50;16.90;;;;;;5073318;28;20171;-44
2023/05/28 00:31:34;;;;;;;8.67;7.97;;;18.40;16.30;;;;;;5071229;28;20178;-44
2023/05/28 00:34:00;;;;;;;8.27;7.50;;;18.40;16.50;;;;;;5072375;28;20213;-47
2023/05/28 00:36:26;;;;;;;9.40;8.10;;;18.40;16.40;;;;;;5072674;28;20182;-48
2023/05/28 00:38:52;;;;;;;8.93;8.07;;;18.40;16.40;;;;;;5073916;28;20455;-49
2023/05/28 00:41:22;;;;;;;8.43;7.70;;;18.30;16.30;;;;;;5072789;28;20404;-50
2023/05/28 00:43:48;;;;;;;8.70;7.90;;;18.40;16.50;;;;;;5073232;28;20279;-50
2023/05/28 00:46:21;;;;;;;8.37;7.57;;;18.30;16.30;;;;;;5073281;28;20421;-50
2023/05/28 00:48:47;;;;;;;9.37;8.50;;;18.30;16.40;;;;;;5071544;28;20416;-49
2023/05/28 00:51:13;;;;;;;7.87;7.23;;;18.30;16.50;;;;;;5071976;28;20478;-48
2023/05/28 00:53:41;;;;;;;8.90;8.10;;;18.20;16.20;;;;;;5072978;28;20453;-50
2023/05/28 00:56:11;;;;;;;8.60;7.90;;;18.20;16.20;;;;;;5072449;28;20401;-50
2023/05/28 00:58:39;;;;;;;7.97;7.23;;;18.20;16.20;;;;;;5072282;28;20787;-46
2023/05/28 01:01:09;;;;;;;8.37;7.57;;;18.10;16.30;;;;;;5072543;28;20786;-45
2023/05/28 01:03:38;;;;;;;8.70;8.10;;;18.10;16.20;;;;;;5072329;28;20424;-51
2023/05/28 01:06:11;;;;;;;8.63;7.93;;;18.10;16.20;;;;;;5073004;28;20503;-46
2023/05/28 01:08:37;;;;;;;11.37;8.50;;;18.10;16.10;;;;;;5071241;28;20425;-51
2023/05/28 01:11:05;;;;;;;9.23;8.33;;;18.10;16.10;;;;;;5071764;28;20955;-46
2023/05/28 01:13:32;;;;;;;9.17;8.37;;;18.10;16.10;;;;;;5073451;28;20862;-48
2023/05/28 01:15:58;;;;;;;8.60;7.90;;;18.10;16.20;;;;;;5072457;28;20405;-49
2023/05/28 01:18:25;;;;;;;8.93;7.63;;;18.10;16.80;;;;;;5073750;28;20935;-49
2023/05/28 01:20:51;;;;;;;8.10;7.50;;;18.10;16.40;;;;;;5073959;28;20408;-49
2023/05/28 01:23:23;;;;;;;7.70;7.00;;;18.00;17.00;;;;;;5090622;28;20419;-48
2023/05/28 01:25:53;;;;;;;8.53;7.73;;;18.00;16.40;;;;;;5073043;28;20424;-50
2023/05/28 01:28:21;;;;;;;9.13;7.70;;;18.00;16.60;;;;;;5072850;28;20432;-49
2023/05/28 01:30:46;;;;;;;8.47;7.67;;;18.00;16.70;;;;;;5072835;28;20435;-45
2023/05/28 01:33:13;;;;;;;7.77;7.13;;;18.00;16.90;;;;;;5071094;28;20456;-48
2023/05/28 01:35:40;;;;;;;8.93;8.23;;;18.00;16.90;;;;;;5070571;28;20167;-44
2023/05/28 01:38:06;;;;;;;8.60;7.90;;;18.00;17.00;;;;;;5073636;28;20844;-49
2023/05/28 01:40:33;;;;;;;8.30;7.50;;;17.90;17.20;;;;;;5070605;28;20413;-48
2023/05/28 01:42:59;;;;;;;9.20;8.17;;;17.90;16.70;;;;;;5074064;28;20417;-50
2023/05/28 01:45:26;;;;;;;8.17;7.30;;;17.90;17.40;;;;;;5075843;28;20511;-47
2023/05/28 01:47:53;;;;;;;8.90;8.20;;;17.90;17.50;;;;;;5076237;28;20416;-50
2023/05/28 01:50:19;;;;;;;9.27;8.37;;;17.90;18.00;;;;;;5074835;28;20822;-49
2023/05/28 01:52:45;;;;;;;10.43;7.70;;;17.70;17.80;;;;;;5092112;28;20809;-45
2023/05/28 01:55:11;;;;;;;8.37;7.67;;;17.50;18.10;;;;;;5093589;28;20491;-49
2023/05/28 01:57:38;;;;;;;8.60;7.90;;;17.50;17.60;;;;;;5066305;28;20581;-47
2023/05/28 02:00:06;;;;;;;8.77;7.97;;;17.60;17.60;;;;;;5055887;28;20436;-48
2023/05/28 02:02:31;;;;;;;9.27;8.40;;;17.60;17.50;;;;;;5072388;28;20810;-47
2023/05/28 02:04:57;;;;;;;8.77;8.10;;;17.60;17.60;;;;;;5055643;28;20420;-50
2023/05/28 02:07:23;;;;;;;7.83;7.30;;;17.60;17.40;;;;;;5071750;28;20171;-51
2023/05/28 02:09:49;;;;;;;8.23;7.53;;;17.70;17.50;;;;;;5054681;28;20639;-48
2023/05/28 02:12:15;;;;;;;7.70;7.10;;;17.70;17.50;;;;;;5052659;28;20195;-46
2023/05/28 02:14:42;;;;;;;8.23;7.53;;;17.70;17.40;;;;;;5055500;28;20418;-46
2023/05/28 02:17:09;;;;;;;8.40;7.70;;;17.60;17.50;;;;;;5055723;28;20496;-48
2023/05/28 02:19:35;;;;;;;11.17;8.33;;;17.60;17.30;;;;;;5055073;28;20431;-47
2023/05/28 02:22:01;;;;;;;9.67;8.43;;;17.60;17.70;;;;;;5054295;28;20474;-47
2023/05/28 02:24:27;;;;;;;9.47;8.30;;;17.60;17.50;;;;;;5054137;28;20810;-49
2023/05/28 02:26:53;;;;;;;9.80;8.83;;;17.60;17.50;;;;;;5056529;28;20559;-47
2023/05/28 02:29:19;;;;;;;8.70;7.90;;;17.50;17.60;;;;;;5056306;28;20539;-47
2023/05/28 02:31:44;;;;;;;10.67;8.67;;;17.60;17.60;;;;;;5054745;28;20413;-51
2023/05/28 02:34:10;;;;;;;9.23;8.37;;;17.60;17.50;;;;;;5056190;28;20232;-49
2023/05/28 02:36:36;;;;;;;9.40;8.47;;;17.60;17.40;;;;;;5056181;28;20544;-51
2023/05/28 02:39:02;;;;;;;10.03;9.10;;;17.50;17.40;;;;;;5054587;28;20202;-45
2023/05/28 02:41:27;;;;;;;8.93;8.13;;;17.50;17.00;;;;;;5053551;28;20203;-48
2023/05/28 02:43:53;;;;;;;8.90;8.10;;;17.50;17.10;;;;;;5054094;28;20941;-47
2023/05/28 02:46:19;;;;;;;9.13;8.50;;;17.50;17.70;;;;;;5054290;28;20175;-49
2023/05/28 02:48:45;;;;;;;10.07;9.20;;;17.50;18.00;;;;;;5054483;28;20266;-48
2023/05/28 02:51:11;;;;;;;9.23;8.53;;;17.50;18.50;;;;;;5052633;28;20191;-50
2023/05/28 02:53:37;;;;;;;9.83;9.03;;;17.50;18.20;;;;;;5053051;28;20873;-52
2023/05/28 02:56:02;;;;;;;9.90;8.97;;;17.40;18.00;;;;;;5053927;28;20471;-50
2023/05/28 02:58:30;;;;;;;9.00;8.20;;;17.50;18.20;;;;;;5054965;28;20171;-53
2023/05/28 03:00:56;;;;;;;9.10;8.40;;;17.50;18.50;;;;;;5054799;28;20632;-51
2023/05/28 03:03:21;;;;;;;9.13;8.43;;;17.50;19.00;;;;;;5054289;28;20507;-48
2023/05/28 03:05:48;;;;;;;9.33;8.37;;;17.50;19.40;;;;;;5053191;28;20478;-50
2023/05/28 03:08:15;;;;;;;9.47;8.70;;;17.10;18.50;;;;;;5053040;28;20600;-45
2023/05/28 03:10:40;;;;;;;9.37;8.57;;;16.80;19.50;;;;;;5053910;28;20464;-46
2023/05/28 03:13:06;;;;;;;9.33;8.40;;;16.60;19.40;;;;;;5051577;28;20888;-48
2023/05/28 03:15:31;;;;;;;9.27;8.43;;;16.40;20.00;;;;;;5052451;28;20175;-47
2023/05/28 03:17:57;;;;;;;10.20;9.20;;;16.20;20.20;;;;;;5052829;28;20705;-51
2023/05/28 03:20:23;;;;;;;9.73;8.83;;;16.10;20.50;;;;;;5053573;28;20719;-49
2023/05/28 03:22:56;;;;;;;9.40;8.03;;;16.10;21.00;;;;;;5052688;28;20179;-46
2023/05/28 03:25:21;;;;;;;9.57;8.60;;;16.30;20.80;;;;;;5053783;28;20198;-44
2023/05/28 03:27:47;;;;;;;9.20;8.40;;;16.40;20.20;;;;;;5052824;28;20417;-44
2023/05/28 03:30:14;;;;;;;10.17;9.17;;;16.60;19.60;;;;;;5051029;28;20258;-47
2023/05/28 03:32:40;;;;;;;9.53;8.40;;;16.70;19.50;;;;;;5053495;28;20690;-45
2023/05/28 03:35:06;;;;;;;8.40;7.70;;;16.70;19.50;;;;;;5051961;28;20750;-47
2023/05/28 03:37:32;;;;;;;9.50;8.70;;;16.80;19.50;;;;;;5052483;28;20456;-45
2023/05/28 03:39:57;;;;;;;9.03;8.30;;;16.90;19.60;;;;;;5054988;28;20473;-47
2023/05/28 03:42:23;;;;;;;9.70;8.80;;;16.90;19.60;;;;;;5053481;28;20186;-47
2023/05/28 03:44:48;;;;;;;9.53;8.53;;;17.00;19.70;;;;;;5070700;28;20561;-46
2023/05/28 03:47:14;;;;;;;10.03;9.07;;;17.00;19.10;;;;;;5050907;28;20175;-46
2023/05/28 03:49:40;;;;;;;8.93;8.23;;;17.00;18.60;;;;;;5070095;28;20640;-50
2023/05/28 03:52:05;;;;;;;8.70;8.10;;;17.00;18.40;;;;;;5053325;28;20202;-49
2023/05/28 03:54:32;;;;;;;9.10;8.30;;;17.00;18.50;;;;;;5052124;28;20383;-49
2023/05/28 03:56:58;;;;;;;9.67;8.70;;;17.00;18.20;;;;;;5053207;28;20259;-50
2023/05/28 03:59:23;;;;;;;8.90;8.20;;;17.00;18.20;;;;;;5050329;28;20441;-50
2023/05/28 04:01:49;;;;;;;8.57;7.90;;;17.00;18.50;;;;;;5053147;28;20175;-48
2023/05/28 04:04:15;;;;;;;9.50;8.60;;;17.00;18.40;;;;;;5053716;28;20175;-49
2023/05/28 04:06:41;;;;;;;8.70;8.00;;;16.90;18.10;;;;;;5051122;28;20417;-47
2023/05/28 04:09:08;;;;;;;8.20;7.60;;;16.90;18.30;;;;;;5070922;28;20252;-49
2023/05/28 04:11:34;;;;;;;8.90;8.00;;;16.90;18.40;;;;;;5070970;28;20465;-52
2023/05/28 04:14:01;;;;;;;8.30;7.60;;;16.90;18.50;;;;;;5054072;28;20495;-48
2023/05/28 04:16:27;;;;;;;8.70;7.90;;;16.90;18.60;;;;;;5054662;28;20470;-52
2023/05/28 04:18:53;;;;;;;9.10;7.90;;;16.90;19.00;;;;;;5054777;28;20418;-53
2023/05/28 04:21:20;;;;;;;9.10;8.40;;;16.90;18.80;;;;;;5053876;28;20179;-48
2023/05/28 04:23:46;;;;;;;8.90;7.47;;;16.80;18.70;;;;;;5054085;28;21024;-50
2023/05/28 04:26:12;;;;;;;8.37;7.57;;;16.80;18.90;;;;;;5053662;28;20751;-48
2023/05/28 04:28:38;;;;;;;9.30;8.60;;;16.80;19.40;;;;;;5053644;28;20414;-50
2023/05/28 04:31:04;;;;;;;9.47;8.70;;;16.80;19.50;;;;;;5053416;28;20444;-50
2023/05/28 04:33:30;;;;;;;9.40;8.60;;;16.80;19.50;;;;;;5051769;28;20814;-50
2023/05/28 04:35:59;;;;;;;8.43;7.83;;;16.80;19.50;;;;;;5054208;28;20417;-50
2023/05/28 04:38:31;;;;;;;11.03;10.03;;;16.90;19.60;;;;;;5054380;28;20274;-53
2023/05/28 04:40:57;;;;;;;8.97;8.23;;;16.90;19.60;;;;;;5054432;28;20443;-49
2023/05/28 04:43:23;;;;;;;9.90;9.03;;;16.90;19.60;;;;;;5053791;28;20470;-47
2023/05/28 04:45:49;;;;;;;9.97;9.03;;;16.90;20.10;;;;;;5054297;28;20421;-51
2023/05/28 04:48:15;;;;;;;9.30;8.60;;;16.90;19.80;;;;;;5072394;28;20901;-50
2023/05/28 04:50:41;;;;;;;10.67;9.87;;;16.90;19.60;;;;;;5072411;28;20493;-47
2023/05/28 04:53:07;;;;;;;10.60;9.77;;;16.90;19.60;;;;;;5052857;28;21020;-51
2023/05/28 04:55:32;;;;;;;9.50;8.80;;;16.90;19.70;;;;;;5054171;28;20505;-48
2023/05/28 04:57:58;;;;;;;10.80;9.90;;;16.90;20.30;;;;;;5054309;28;20206;-49
2023/05/28 05:00:26;;;;;;;10.43;9.63;;;16.70;20.20;;;;;;5054023;28;20206;-47
2023/05/28 05:02:52;;;;;;;9.30;8.67;;;16.50;21.00;;;;;;5053460;28;20179;-47
2023/05/28 05:05:19;;;;;;;10.00;9.17;;;16.50;21.20;;;;;;5070982;28;20408;-46
2023/05/28 05:07:45;;;;;;;11.10;10.10;;;16.60;21.80;;;;;;5053002;28;20421;-49
2023/05/28 05:10:11;;;;;;;10.20;9.40;;;16.60;21.20;;;;;;5053666;28;21099;-48
2023/05/28 05:12:37;;;;;;;10.57;9.53;;;16.50;21.20;;;;;;5053007;28;20456;-46
2023/05/28 05:15:05;;;;;;;9.97;9.07;;;16.40;21.60;;;;;;5052378;28;20178;-46
2023/05/28 05:17:31;;;;;;;10.60;9.80;;;16.30;22.00;;;;;;5053797;28;20421;-47
2023/05/28 05:19:58;;;;;;;11.00;10.10;;;16.40;21.80;;;;;;5056312;28;21158;-47
2023/05/28 05:22:24;;;;;;;10.53;9.73;;;16.30;21.60;;;;;;5053697;28;20410;-48
2023/05/28 05:24:49;;;;;;;11.93;10.93;;;16.20;21.60;;;;;;5057408;28;20478;-46
2023/05/28 05:27:15;;;;;;;10.83;9.30;;;16.10;21.60;;;;;;5055645;28;20942;-47
2023/05/28 05:29:41;;;;;;;9.77;9.07;;;16.10;22.10;;;;;;5055374;28;20207;-50
2023/05/28 05:32:08;;;;;;;10.27;9.57;;;16.20;21.90;;;;;;5052419;28;20516;-51
2023/05/28 05:34:33;;;;;;;10.87;9.97;;;16.10;21.60;;;;;;5057179;28;20410;-47
2023/05/28 05:36:59;;;;;;;11.17;10.07;;;16.30;21.40;;;;;;5052733;28;20413;-52
2023/05/28 05:39:25;;;;;;;10.80;9.70;;;16.30;21.40;;;;;;5072767;28;20160;-49
2023/05/28 05:41:51;;;;;;;11.43;10.43;;;16.40;21.10;;;;;;5073413;28;20422;-47
2023/05/28 05:44:17;;;;;;;11.47;10.47;;;16.30;21.20;;;;;;5057101;28;20266;-53
2023/05/28 05:46:42;;;;;;;10.13;9.33;;;16.40;21.10;;;;;;5056249;28;20190;-51
2023/05/28 05:49:09;;;;;;;10.90;9.80;;;16.50;21.20;;;;;;5057119;28;20182;-45
2023/05/28 05:51:35;;;;;;;10.87;9.87;;;16.60;21.20;;;;;;5055394;28;20278;-49
2023/05/28 05:54:02;;;;;;;11.80;10.70;;;16.60;21.10;;;;;;5056793;28;20465;-50
2023/05/28 05:56:27;;;;;;;20.13;10.13;;;16.60;20.90;;;;;;5055232;28;20405;-49
2023/05/28 05:58:53;;;;;;;10.23;9.30;;;16.50;21.30;;;;;;5055937;28;20479;-46
2023/05/28 06:01:20;;;;;;;11.03;9.87;;;16.60;21.50;;;;;;5054277;28;20171;-53
2023/05/28 06:03:46;;;;;;;10.07;9.27;;;16.70;21.40;;;;;;5073810;28;20410;-49
2023/05/28 06:06:12;;;;;;;10.67;9.87;;;16.70;21.30;;;;;;5056729;28;20444;-51
2023/05/28 06:08:39;;;;;;;9.90;9.20;;;16.70;21.10;;;;;;5055928;28;20417;-47
2023/05/28 06:11:05;;;;;;;11.57;10.50;;;16.70;20.20;;;;;;5056263;28;20437;-47
2023/05/28 06:13:31;;;;;;;10.60;9.70;;;16.70;20.10;;;;;;5056118;28;20794;-50
2023/05/28 06:15:57;;;;;;;10.37;9.40;;;16.60;20.60;;;;;;5056702;28;20405;-49
2023/05/28 06:18:26;;;;;;;12.60;9.83;;;16.70;20.80;;;;;;5056442;28;20414;-48
2023/05/28 06:20:52;;;;;;;10.00;9.20;;;16.70;20.60;;;;;;5056417;28;20504;-45
2023/05/28 06:23:17;;;;;;;10.13;9.23;;;16.80;20.60;;;;;;5055114;28;20468;-52
2023/05/28 06:25:43;;;;;;;9.93;9.00;;;16.90;20.00;;;;;;5055556;28;20187;-47
2023/05/28 06:28:10;;;;;;;9.13;8.33;;;16.90;19.90;;;;;;5053597;28;20639;-49
2023/05/28 06:30:35;;;;;;;10.00;9.00;;;16.90;20.00;;;;;;5054597;28;20420;-50
2023/05/28 06:33:01;;;;;;;10.07;9.27;;;17.00;19.70;;;;;;5055337;28;20844;-48
2023/05/28 06:35:27;;;;;;;10.20;9.40;;;17.00;18.90;;;;;;5055435;28;20175;-49
2023/05/28 06:37:53;;;;;;;9.50;8.80;;;17.00;18.60;;;;;;5053678;28;20177;-48
2023/05/28 06:40:19;;;;;;;11.03;8.97;;;17.10;18.70;;;;;;5055434;28;20424;-48
2023/05/28 06:42:44;;;;;;;10.13;9.23;;;17.10;18.30;;;;;;5055411;28;20317;-47
2023/05/28 06:45:10;;;;;;;10.30;9.50;;;17.20;18.10;;;;;;5055456;28;20183;-49
2023/05/28 06:47:36;;;;;;;9.67;8.77;;;17.20;18.00;;;;;;5054782;28;20491;-45
2023/05/28 06:50:02;;;;;;;9.50;8.53;;;17.30;17.90;;;;;;5055434;28;20902;-46
2023/05/28 06:52:28;;;;;;;11.40;9.47;;;17.40;18.20;;;;;;5055030;28;20196;-46
2023/05/28 06:54:53;;;;;;;9.87;8.90;;;17.30;18.00;;;;;;5054570;28;20487;-44
2023/05/28 06:57:20;;;;;;;10.60;9.70;;;17.40;18.00;;;;;;5054478;28;20175;-45
2023/05/28 06:59:46;;;;;;;10.50;9.60;;;17.40;18.40;;;;;;5055040;28;20254;-46
2023/05/28 07:02:12;;;;;;;10.13;9.10;;;17.40;18.30;;;;;;5053741;28;20413;-44
2023/05/28 07:04:38;;;;;;;10.07;9.17;;;17.50;17.80;;;;;;5054089;28;20898;-50
2023/05/28 07:07:05;;;;;;;9.40;8.57;;;17.50;18.50;;;;;;5054297;28;20178;-47
2023/05/28 07:09:30;;;;;;;9.30;8.50;;;17.60;18.50;;;;;;5072475;28;20775;-45
2023/05/28 07:11:56;;;;;;;9.47;8.63;;;17.70;18.30;;;;;;5053938;28;20421;-49
2023/05/28 07:14:22;;;;;;;10.27;9.30;;;17.70;17.40;;;;;;5052891;28;20211;-49
2023/05/28 07:16:48;;;;;;;9.23;8.50;;;17.70;17.20;;;;;;5054018;28;20179;-58
2023/05/28 07:19:14;;;;;;;9.10;8.37;;;17.80;17.30;;;;;;5045955;28;20837;-46
2023/05/28 07:21:40;;;;;;;10.03;9.20;;;17.80;17.00;;;;;;5052590;28;20500;-47
2023/05/28 07:24:06;;;;;;;10.30;9.13;;;17.90;16.90;;;;;;5053700;28;20172;-50
2023/05/28 07:26:33;;;;;;;9.10;7.97;;;18.00;16.70;;;;;;5052492;28;20233;-48
2023/05/28 07:29:00;;;;;;;9.17;8.37;;;18.10;16.40;;;;;;5052675;28;20906;-45
2023/05/28 07:31:26;;;;;;;9.00;8.13;;;18.10;16.40;;;;;;5070219;28;20414;-48
2023/05/28 07:33:52;;;;;;;9.77;8.90;;;18.20;16.20;;;;;;5053244;28;20468;-45
2023/05/28 07:36:17;;;;;;;9.83;9.03;;;18.30;16.30;;;;;;5054449;28;20620;-50
2023/05/28 07:38:43;;;;;;;9.83;9.00;;;18.40;16.00;;;;;;5053218;28;20201;-44
2023/05/28 07:41:08;;;;;;;9.53;8.63;;;18.40;15.90;;;;;;5053497;28;20229;-48
2023/05/28 07:43:34;;;;;;;9.27;8.47;;;18.50;15.60;;;;;;5051738;28;20215;-49
2023/05/28 07:46:00;;;;;;;9.37;8.47;;;18.50;15.50;;;;;;5051148;28;20179;-46
2023/05/28 07:48:26;;;;;;;10.20;9.27;;;18.50;16.00;;;;;;5070709;28;20183;-47
2023/05/28 07:50:52;;;;;;;11.33;7.80;;;18.60;15.50;;;;;;5051316;28;20214;-48
2023/05/28 07:53:18;;;;;;;11.03;8.77;;;18.60;15.80;;;;;;5050016;28;20574;-48
2023/05/28 07:55:44;;;;;;;14.30;12.07;;;18.60;15.50;;;;;;5049607;28;20608;-46
2023/05/28 07:58:12;;;;;;;9.40;8.70;;;18.60;15.50;;;;;;5067072;28;20451;-49
2023/05/28 08:00:38;;;;;;;9.73;8.93;;;18.60;15.60;;;;;;5049043;28;20440;-45
2023/05/28 08:03:04;;;;;;;10.43;9.37;;;18.60;15.90;;;;;;5049217;28;20853;-44
2023/05/28 08:05:30;;;;;;;9.60;8.70;;;18.70;16.00;;;;;;5084306;28;20500;-45
2023/05/28 08:07:56;;;;;;;9.33;8.50;;;18.80;15.80;;;;;;5051746;28;20602;-47
2023/05/28 08:10:22;;;;;;;9.20;8.50;;;19.00;15.00;;;;;;5053163;28;20441;-46
2023/05/28 08:12:47;;;;;;;7.90;7.37;;;19.10;14.60;;;;;;5053389;28;20203;-45
2023/05/28 08:15:13;;;;;;;9.33;8.63;;;19.20;14.60;;;;;;5054459;28;20171;-47
2023/05/28 08:17:39;;;;;;;9.20;8.40;;;19.20;14.60;;;;;;5054216;28;20167;-46
2023/05/28 08:20:06;;;;;;;8.70;8.10;;;19.30;14.70;;;;;;5054367;28;20178;-45
2023/05/28 08:22:31;;;;;;;9.20;8.40;;;19.30;14.60;;;;;;5071540;28;20183;-45
2023/05/28 08:24:57;;;;;;;9.03;8.13;;;19.50;14.00;;;;;;5054446;28;20413;-46
2023/05/28 08:27:23;;;;;;;10.03;8.30;;;19.50;14.10;;;;;;5054363;28;20182;-52
2023/05/28 08:29:48;;;;;;;9.20;8.50;;;19.50;13.90;;;;;;5054381;28;20179;-48
2023/05/28 08:32:14;;;;;;;9.33;8.50;;;19.70;14.10;;;;;;5052417;28;20187;-46
2023/05/28 08:34:40;;;;;;;9.50;8.63;;;19.60;14.80;;;;;;5053928;28;20179;-47
2023/05/28 08:37:06;;;;;;;8.33;7.50;;;19.80;13.60;;;;;;5065227;28;20186;-47
2023/05/28 08:39:32;;;;;;;7.57;7.07;;;19.80;13.30;;;;;;5074003;28;20178;-49
2023/05/28 08:41:58;;;;;;;9.30;7.87;;;19.80;12.90;;;;;;5073164;28;20554;-47
2023/05/28 08:44:23;;;;;;;8.07;7.50;;;19.80;13.90;;;;;;5073779;28;20424;-47
2023/05/28 08:46:50;;;;;;;16.10;9.00;;;19.80;13.50;;;;;;5073560;28;20177;-49
2023/05/28 08:49:18;;;;;;;8.87;7.80;;;19.80;13.70;;;;;;5074188;28;20182;-47
2023/05/28 08:51:45;;;;;;;7.50;7.00;;;19.70;13.60;;;;;;5073560;28;20459;-48
2023/05/28 08:54:11;;;;;;;8.70;7.77;;;19.70;13.70;;;;;;5078144;28;20464;-46
2023/05/28 08:56:38;;;;;;;7.63;7.00;;;19.80;14.00;;;;;;5078081;28;20978;-45
2023/05/28 08:59:05;;;;;;;8.40;7.77;;;19.90;13.70;;;;;;5078170;28;20174;-47
2023/05/28 09:01:32;;;;;;;7.60;6.90;;;19.90;13.00;;;;;;5077468;28;20440;-50
2023/05/28 09:03:58;;;;;;;8.73;7.10;;;20.00;13.20;;;;;;5078057;28;20511;-49
2023/05/28 09:06:25;;;;;;;8.00;7.30;;;20.10;13.20;;;;;;5077965;28;20503;-49
2023/05/28 09:08:52;;;;;;;7.60;6.90;;;20.50;12.60;;;;;;5077968;28;20175;-49
2023/05/28 09:11:18;;;;;;;8.53;6.60;;;20.60;12.50;;;;;;5077165;28;20428;-51
2023/05/28 09:13:46;;;;;;;8.00;7.30;;;20.60;12.80;;;;;;5077690;28;20568;-46
2023/05/28 09:16:22;;;;;;;6.80;6.23;;;20.80;12.60;;;;;;5096020;28;20886;-46
2023/05/28 09:19:01;;;;;;;7.23;6.70;;;20.90;12.50;;;;;;5077973;28;20790;-50
2023/05/28 09:21:26;;;;;;;7.07;6.50;;;20.80;12.90;;;;;;5077245;28;20494;-48
2023/05/28 09:23:52;;;;;;;16.23;7.17;;;20.80;13.10;;;;;;5077658;28;20863;-47
2023/05/28 09:26:21;;;;;;;7.33;6.73;;;20.80;13.00;;;;;;5077736;28;20643;-51
2023/05/28 09:28:48;;;;;;;7.33;6.83;;;20.90;13.10;;;;;;5077378;28;20185;-49
2023/05/28 09:31:14;;;;;;;9.93;7.00;;;21.30;11.80;;;;;;5076950;28;20467;-44
2023/05/28 09:33:46;;;;;;;6.30;5.80;;;21.60;12.20;;;;;;5077267;28;20881;-49
2023/05/28 09:36:16;;;;;;;7.10;6.20;;;21.70;12.00;;;;;;5077360;28;20962;-45
2023/05/28 09:38:42;;;;;;;13.47;7.30;;;21.70;11.80;;;;;;5095461;28;20488;-45
2023/05/28 09:41:27;;;;;;;7.80;6.97;;;21.80;11.40;;;;;;5076904;28;20606;-44
2023/05/28 09:44:00;;;;;;;7.63;6.90;;;21.90;11.50;;;;;;5095444;28;20422;-43
2023/05/28 09:46:31;;;;;;;7.83;7.13;;;22.00;11.80;;;;;;5077257;28;20417;-43
2023/05/28 09:48:58;;;;;;;9.43;7.10;;;22.10;11.20;;;;;;5077120;28;20424;-43
2023/05/28 09:51:28;;;;;;;6.97;6.37;;;22.20;11.10;;;;;;5076615;28;20849;-44
2023/05/28 09:53:58;;;;;;;7.63;7.00;;;22.40;10.00;;;;;;5077003;28;20645;-45
2023/05/28 09:56:31;;;;;;;16.00;11.80;;;22.50;10.20;;;;;;5076955;28;20827;-43
2023/05/28 09:59:01;;;;;;;8.40;6.67;;;22.60;9.10;;;;;;5061163;28;20971;-45
2023/05/28 10:01:31;;;;;;;6.83;6.23;;;23.00;7.90;;;;;;5074076;28;20419;-49
2023/05/28 10:04:07;;;;;;;7.27;6.20;;;23.20;7.30;;;;;;5057020;28;20871;-47
2023/05/28 10:06:35;;;;;;;6.63;6.13;;;23.40;7.20;;;;;;5056803;28;20812;-48
2023/05/28 10:09:02;;;;;;;14.60;6.00;;;23.50;7.80;;;;;;5056955;28;20482;-59
2023/05/28 10:11:34;;;;;;;7.40;6.80;;;23.60;8.00;;;;;;5055938;28;20473;-45
2023/05/28 10:14:00;;;;;;;7.27;5.77;;;23.70;7.10;;;;;;5056663;28;20464;-47
2023/05/28 10:16:26;;;;;;;6.13;5.60;;;23.80;6.80;;;;;;5056500;28;20774;-45
2023/05/28 10:18:53;;;;;;;6.73;6.00;;;23.80;6.90;;;;;;5074408;28;20418;-46
2023/05/28 10:21:19;;;;;;;6.77;5.70;;;23.90;6.20;;;;;;5055755;28;20449;-47
2023/05/28 10:23:46;;;;;;;6.30;5.83;;;24.00;6.00;;;;;;5056689;28;21101;-49
2023/05/28 10:26:14;;;;;;;9.97;6.80;;;24.10;6.40;;;;;;5074687;28;20428;-49
2023/05/28 10:28:41;;;;;;;7.50;6.80;;;24.00;5.70;;;;;;5056619;28;20500;-50
2023/05/28 10:31:07;;;;;;;7.60;6.97;;;24.00;5.60;;;;;;5074214;28;20432;-51
2023/05/28 10:33:40;;;;;;;8.63;6.40;;;24.20;7.00;;;;;;5074288;28;20468;-49
2023/05/28 10:36:11;;;;;;;9.50;6.23;;;24.30;7.10;;;;;;5055599;28;20421;-50
2023/05/28 10:38:45;;;;;;;7.90;7.30;;;24.30;7.10;;;;;;5051365;28;20495;-51
2023/05/28 10:41:11;;;;;;;6.57;6.03;;;24.20;7.00;;;;;;5052115;28;20415;-49
2023/05/28 10:43:45;;;;;;;7.67;6.97;;;24.10;7.10;;;;;;5056897;28;20448;-54
2023/05/28 10:46:22;;;;;;;10.90;7.30;;;24.10;7.30;;;;;;5056742;28;20425;-45
2023/05/28 10:49:10;;;;;;;7.40;6.70;;;24.00;8.10;;;;;;5092439;28;20421;-47
2023/05/28 10:51:54;;;;;;;5.83;5.43;;;24.20;5.00;;;;;;5057959;28;20417;-48
2023/05/28 10:54:45;;;;;;;7.97;7.33;;;24.30;5.20;;;;;;5057391;28;20473;-47
2023/05/28 10:57:19;;;;;;;8.67;6.83;;;24.20;7.00;;;;;;5078780;28;20418;-47
2023/05/28 11:00:04;;;;;;;11.37;7.40;;;24.10;8.50;;;;;;5055605;28;20418;-47
2023/05/28 11:02:34;;;;;;;7.70;7.00;;;24.10;8.00;;;;;;5054303;28;21146;-50
2023/05/28 11:05:03;;;;;;;7.60;6.83;;;24.30;7.80;;;;;;5070430;28;20802;-47
2023/05/28 11:07:36;;;;;;;11.70;7.17;;;24.30;8.00;;;;;;5050934;28;20425;-49
2023/05/28 11:10:04;;;;;;;11.10;6.87;;;24.20;8.10;;;;;;5051854;28;20512;-46
2023/05/28 11:12:32;;;;;;;8.07;7.47;;;24.10;8.30;;;;;;5071390;28;20504;-49
2023/05/28 11:14:57;;;;;;;7.60;6.90;;;24.00;8.40;;;;;;5053405;28;20453;-51
2023/05/28 11:17:23;;;;;;;8.20;7.40;;;24.00;8.30;;;;;;5053826;28;20453;-50
2023/05/28 11:19:50;;;;;;;8.03;7.23;;;23.90;8.30;;;;;;5053420;28;20179;-46
2023/05/28 11:22:18;;;;;;;6.57;6.17;;;23.90;7.40;;;;;;5033013;28;20649;-49
2023/05/28 11:25:00;;;;;;;6.73;6.23;;;24.00;6.90;;;;;;5033780;28;20491;-46
2023/05/28 11:27:28;;;;;;;6.97;6.40;;;24.20;6.50;;;;;;5034067;28;20463;-48
2023/05/28 11:29:59;;;;;;;6.83;6.33;;;24.20;7.00;;;;;;5034233;28;20407;-48
2023/05/28 11:32:26;;;;;;;7.60;7.00;;;24.10;7.00;;;;;;5033698;28;20414;-48
2023/05/28 11:34:53;;;;;;;7.93;7.33;;;23.90;6.90;;;;;;5017804;28;20757;-47
2023/05/28 11:37:35;;;;;;;8.40;7.70;;;23.80;7.20;;;;;;5034356;28;20410;-47
2023/05/28 11:40:14;;;;;;;7.40;6.90;;;23.70;7.50;;;;;;5034044;28;20418;-46
2023/05/28 11:42:42;;;;;;;8.00;7.13;;;23.80;7.00;;;;;;5033647;28;20922;-49
2023/05/28 11:45:08;;;;;;;8.20;6.30;;;23.70;7.10;;;;;;5034077;28;20471;-45
2023/05/28 11:47:36;;;;;;;7.77;6.80;;;23.80;7.40;;;;;;5033569;28;20550;-46
2023/05/28 11:50:12;;;;;;;12.43;7.00;;;23.90;6.80;;;;;;5052264;28;20969;-47
2023/05/28 11:52:37;;;;;;;8.20;6.50;;;23.90;6.70;;;;;;5070800;28;20457;-48
2023/05/28 11:55:03;;;;;;;10.33;6.83;;;23.80;6.90;;;;;;5073137;28;21065;-46
2023/05/28 11:57:36;;;;;;;7.40;6.70;;;23.90;6.80;;;;;;5072408;28;20190;-47
2023/05/28 12:00:11;;;;;;;8.10;6.80;;;23.90;6.80;;;;;;5054577;28;20422;-48
2023/05/28 12:02:47;;;;;;;7.37;6.87;;;23.90;7.50;;;;;;5054273;28;20427;-49
2023/05/28 12:05:14;;;;;;;8.40;6.33;;;23.80;6.80;;;;;;5054200;28;20516;-48
2023/05/28 12:07:58;;;;;;;8.00;7.10;;;23.70;6.70;;;;;;5054215;28;20864;-46
2023/05/28 12:10:27;;;;;;;6.90;6.50;;;23.60;6.70;;;;;;5054464;28;20436;-48
2023/05/28 12:12:56;;;;;;;11.70;7.43;;;23.50;7.10;;;;;;5054050;28;20775;-50
2023/05/28 12:15:27;;;;;;;7.60;6.60;;;23.70;6.50;;;;;;5073249;28;20413;-50
2023/05/28 12:17:58;;;;;;;7.50;6.90;;;23.90;5.70;;;;;;5074935;28;20410;-49
2023/05/28 12:20:23;;;;;;;7.67;6.90;;;24.20;4.90;;;;;;5053785;28;20833;-51
2023/05/28 12:23:09;;;;;;;7.30;6.53;;;24.20;5.20;;;;;;5052957;28;20421;-49
2023/05/28 12:25:49;;;;;;;7.00;6.50;;;24.20;5.20;;;;;;5051910;28;20194;-48
2023/05/28 12:28:16;;;;;;;8.07;7.37;;;24.10;5.40;;;;;;5051712;28;20420;-48
2023/05/28 12:30:44;;;;;;;11.20;7.23;;;24.00;5.50;;;;;;5072064;28;20413;-50
2023/05/28 12:33:10;;;;;;;7.43;6.80;;;23.80;6.20;;;;;;5053077;28;20456;-49
2023/05/28 12:35:36;;;;;;;8.10;7.23;;;23.70;6.20;;;;;;5053850;28;20460;-48
2023/05/28 12:38:02;;;;;;;8.80;7.70;;;23.70;6.00;;;;;;5054022;28;20417;-50
2023/05/28 12:40:28;;;;;;;7.60;6.30;;;23.60;6.40;;;;;;5053578;28;20550;-50
2023/05/28 12:42:53;;;;;;;7.40;6.73;;;23.60;6.60;;;;;;5053089;28;20409;-46
2023/05/28 12:45:19;;;;;;;6.63;6.07;;;23.60;6.60;;;;;;5053465;28;20815;-48
2023/05/28 12:47:45;;;;;;;6.53;6.13;;;23.60;6.60;;;;;;5053291;28;20175;-49